ENQU weather

Huldra Platform
Norway

Public forecast

Using degrees Celsius for public forecast. Weather courtesy of forecast.io.

Closest aviation weather report (METAR) to Huldra Platform

Closest report is Oseberg A Platform, 22.5 nm (41.6 km) SSE. Retrieved 2019/10/15 19:50 UTC (38 minutes ago):

ENOA 151950Z 09019KT CAVOK 10/07 Q1003 W///S3

Closest aviation forecast (TAF) to Huldra Platform

Closest forecast is Oseberg A Platform, 22.5 nm (41.6 km) SSE. Retrieved 2019/10/15 21:57 UTC (0 seconds ago):

TAF TAF ENOA 152000Z 1521/1621 09018KT 9999 FEW020 BKN040 BECMG 1521/1523 09028KT TEMPO 1521/1605 4000 RA BR BKN010 BECMG 1603/1606 15030KT BKN008 PROB40 1604/1609 3000 DZRA BR BKN004 BECMG 1609/1612 SCT012 BKN020